Terminal Aerodrome Forecast
Issued by NWS

Home | Current Version | Previous Version | Text Only | Print | Product List | Glossary On
Versions: 1 2 3 4 5 6 7 8 9 10 11 12 13 14 15 16 17 18 19
000
FTUS43 KTOP 171725
TAFFOE
TAF
KFOE 171725Z 1718/1818 20015G24KT P6SM BKN012
     FM171900 20015G25KT P6SM FEW020
     FM172300 20006KT P6SM SCT200
     FM180400 32005KT P6SM SCT200
     FM180800 34020G30KT P6SM VCSH OVC012=

USA.gov is the U.S. government's official web portal to all federal, state and local government web resources and services.